• Join FlightAware (Why Join?)
  • Login
  • US Flag 
03:16AM EST


 

Airport Tracker/Info


-or-


 

Live Flight TrackerFlight Track Log ✈ FLG3762 ✈ 18-May-2013 ✈ KAZO - KMSP

Flight Track Log - Related Links

Times and Time Zones

All times are in EDT time to prevent confusion due to time zone crossing. See the FLG3762 flight status page for this flight to view local times or setup timezone preferences in your user account.

Time Position Orientation Groundspeed Altitude Reporting Facility
EDT Latitude Longitude Course Direction KTS MPH feet Rate Location/Type
07:34AM 42.1986 -85.5567 291° West 165 190 2,500  Level Chicago Center
07:35AM 42.1667 -85.6050 228° Southwest 207 238 4,400 1,980 Climbing Chicago Center
07:36AM 42.1994 -85.6861 299° West 248 285 6,600 2,460 Climbing Chicago Center
07:37AM 42.4156 -86.0135 294° West  Level FlightAware Approximate
07:37AM 42.2556 -85.7742 311° West 275 316 9,500  Level Chicago Center
07:38AM 42.4606 -86.1319 294° West  Level FlightAware Approximate
07:38AM 42.3094 -85.8578 311° West 290 334 11,700  Level Chicago Center
07:39AM 42.5081 -86.2451 291° West  Level FlightAware Approximate
07:39AM 42.3661 -85.9475 311° West 310 357 13,700  Level Chicago Center
07:40AM 42.4256 -86.0403 311° West 322 371 15,900 1,860 Climbing Chicago Center
07:41AM 42.4847 -86.1336 311° West 327 376 17,500 1,440 Climbing Chicago Center
07:42AM 42.5433 -86.2322 309° West 334 384 18,900 1,020 Climbing Chicago Center
07:43AM 42.5889 -86.3464 298° West 339 390 19,700 720 Climbing Chicago Center
07:44AM 42.6253 -86.4753 291° West 362 417 20,400 780 Climbing Chicago Center
07:45AM 42.6642 -86.6114 291° West 380 437 21,300 900 Climbing Chicago Center
07:46AM 42.7017 -86.7483 290° West 383 441 22,300 960 Climbing Chicago Center
07:47AM 42.7392 -86.8847 291° West 384 442 23,300 900 Climbing Chicago Center
07:48AM 42.7847 -87.0500 291° West 385 443 24,200 780 Climbing Chicago Center
07:49AM 42.8236 -87.1883 291° West 391 450 24,900 660 Climbing Chicago Center
07:50AM 42.8597 -87.3300 289° West 395 455 25,600 660 Climbing Chicago Center
07:51AM 42.8983 -87.4600 292° West 391 450 26,300 660 Climbing Chicago Center
07:52AM 42.9358 -87.6017 290° West 393 452 27,000 540 Climbing Chicago Center
07:53AM 42.9725 -87.7433 290° West 396 456 27,500 480 Climbing Chicago Center
07:54AM 43.0178 -87.9114 290° West 401 461 28,000 240 Climbing Chicago Center
07:55AM 43.0561 -88.0558 290° West 403 464 28,000  Level Chicago Center
07:56AM 43.0947 -88.1989 290° West 399 459 28,000  Level Chicago Center
07:57AM 43.1436 -88.3294 297° West 390 449 28,000  Level Chicago Center
07:58AM 43.2119 -88.4475 308° West 392 451 28,000  Level Chicago Center
07:59AM 43.2803 -88.5650 309° West 390 449 28,000  Level Chicago Center
08:01AM 43.3489 -88.6836 309° West 390 449 28,000  Level Chicago Center
08:02AM 43.4178 -88.8017 309° West 390 449 28,000  Level Chicago Center
08:03AM 43.4869 -88.9206 309° West 395 455 28,000  Level Chicago Center
08:04AM 43.5567 -89.0406 309° West 397 457 28,000  Level Chicago Center
08:05AM 43.6269 -89.1639 308° West 404 465 28,000  Level Chicago Center
08:05AM 43.6742 -89.2447 309° West 405 466 28,000  Level Minneapolis Center
08:06AM 43.7439 -89.3686 308° West 407 468 28,000  Level Minneapolis Center
08:07AM 43.8153 -89.4964 308° West 416 479 28,000  Level Minneapolis Center
08:08AM 43.8881 -89.6242 308° West 422 486 28,000  Level Minneapolis Center
08:09AM 43.9594 -89.7542 307° West 423 487 28,000  Level Minneapolis Center
08:10AM 44.0322 -89.8817 308° West 423 487 28,000  Level Minneapolis Center
08:11AM 44.1044 -90.0136 307° West 425 489 28,000  Level Minneapolis Center
08:12AM 44.1758 -90.1439 307° West 425 489 28,000  Level Minneapolis Center
08:13AM 44.2606 -90.2964 308° West 426 490 28,000  Level Minneapolis Center
08:14AM 44.3336 -90.4308 307° West 431 496 28,000 -240 Level Minneapolis Center
08:15AM 44.4069 -90.5622 308° West 430 495 27,600 -600 Descending Minneapolis Center
08:16AM 44.4800 -90.6917 308° West 425 489 26,800 -840 Descending Minneapolis Center
08:17AM 44.5483 -90.8172 307° West 409 471 26,000 -780 Descending Minneapolis Center
08:19AM 44.6072 -90.9314 306° West 398 458 25,100 -960 Descending Minneapolis Center
08:20AM 44.6600 -91.0933 295° West 385 443 23,900 -1,020 Descending Minneapolis Center
08:21AM 44.6958 -91.2025 295° West 385 443 23,100 -1,020 Descending Minneapolis Center
08:22AM 44.7500 -91.3628 295° West 382 440 21,900 -1,260 Descending Minneapolis Center
08:23AM 44.7903 -91.5261 289° West 373 429 20,600 -1,380 Descending Minneapolis Center
08:24AM 44.8153 -91.6678 284° West 373 429 19,100 -1,560 Descending Minneapolis Center
08:25AM 44.8386 -91.8069 283° West 369 425 17,500 -1,680 Descending Minneapolis Center
08:26AM 44.8614 -91.9450 283° West 364 419 15,800 -1,680 Descending Minneapolis Center
08:27AM 44.8825 -92.0792 283° West 355 409 14,100 -1,680 Descending Minneapolis Center
08:28AM 44.9039 -92.2131 283° West 351 404 12,400 -1,500 Descending Minneapolis Center
08:29AM 44.9247 -92.3439 283° West 346 398 11,100 -660 Descending Minneapolis Center
08:30AM 44.9450 -92.4706 283° West 335 386 11,100  Level Minneapolis Center
08:31AM 44.9647 -92.6006 282° West 339 390 11,100  Level Minneapolis Center
08:32AM 44.9789 -92.7319 279° West 342 394 11,100 -120 Level Minneapolis Center
08:33AM 44.9544 -92.8817 257° West 327 376 10,900 -780 Descending Minneapolis Center
08:34AM 44.9367 -92.9908 257° West 292 336 9,600 -1,380 Descending Minneapolis Center
08:35AM 44.9383 -93.0919 271° West 278 320 8,200 -780 Descending Minneapolis Center
08:36AM 44.9822 -93.1825 304° West 285 328 8,100 -720 Descending Minneapolis Center
08:37AM 45.0250 -93.2708 304° West 276 318 6,800 -1,380 Descending Minneapolis Center
08:38AM 45.0658 -93.3594 303° West 273 314 5,400 -1,080 Descending Minneapolis Center
08:39AM 45.0803 -93.4447 284° West 241 277 4,700 -600 Descending Minneapolis Center
08:40AM 45.0181 -93.4636 192° South 200 230 4,300 -360 Descending Minneapolis Center
08:41AM 44.9772 -93.4178 142° Southeast 194 223 4,000 -600 Descending Minneapolis Center
08:42AM 44.9511 -93.3547 120° Southeast 186 214 3,100 -900 Descending Minneapolis Center